createdAt,value
2019-05-19T00:03:19.333Z,5.67
2019-05-19T00:07:22.352Z,6.67
2019-05-19T00:11:25.348Z,6.50
2019-05-19T00:15:28.367Z,5.70
2019-05-19T00:19:31.643Z,7.00
2019-05-19T00:23:34.639Z,6.93
2019-05-19T00:27:38.895Z,6.87
2019-05-19T00:31:41.903Z,6.57
2019-05-19T00:35:45.158Z,6.60
2019-05-19T00:39:48.667Z,6.67
2019-05-19T00:43:51.688Z,6.50
2019-05-19T00:47:54.784Z,6.10
2019-05-19T00:51:57.787Z,6.30
2019-05-19T00:56:01.284Z,6.83
2019-05-19T01:00:06.379Z,6.90
2019-05-19T01:04:09.403Z,7.27
2019-05-19T01:08:12.392Z,7.00
2019-05-19T01:12:15.406Z,6.13
2019-05-19T01:16:18.489Z,6.67
2019-05-19T01:20:21.894Z,7.13
2019-05-19T01:24:24.917Z,6.30
2019-05-19T01:28:28.768Z,6.50
2019-05-19T01:32:31.776Z,7.47
2019-05-19T01:36:34.791Z,6.53
2019-05-19T01:40:38.091Z,6.37
2019-05-19T01:44:41.124Z,8.10
2019-05-19T01:48:44.134Z,8.30
2019-05-19T01:52:47.135Z,7.10
2019-05-19T01:56:50.136Z,7.23
2019-05-19T02:00:53.135Z,8.30
2019-05-19T02:04:56.138Z,8.30
2019-05-19T02:08:59.159Z,9.60
2019-05-19T02:13:05.098Z,9.53
2019-05-19T02:17:07.368Z,8.60
2019-05-19T02:21:10.360Z,8.17
2019-05-19T02:25:13.966Z,7.50
2019-05-19T02:29:17.549Z,8.20
2019-05-19T02:33:20.551Z,8.20
2019-05-19T02:37:23.548Z,7.60
2019-05-19T02:41:28.256Z,7.13
2019-05-19T02:45:32.561Z,7.47
2019-05-19T02:49:36.268Z,8.10
2019-05-19T02:53:41.040Z,8.10
2019-05-19T02:57:45.233Z,7.87
2019-05-19T03:01:50.133Z,8.33
2019-05-19T03:05:53.160Z,8.20
2019-05-19T03:09:56.168Z,9.07
2019-05-19T03:13:59.183Z,7.87
2019-05-19T03:18:02.222Z,7.80
2019-05-19T03:22:05.222Z,7.90
2019-05-19T03:26:08.244Z,7.70
2019-05-19T03:30:30.591Z,8.40
2019-05-19T03:34:33.596Z,8.20
2019-05-19T03:38:36.606Z,8.00
2019-05-19T03:42:39.607Z,8.83
2019-05-19T03:46:42.621Z,9.20
2019-05-19T03:50:45.629Z,8.50
2019-05-19T03:54:48.646Z,8.87
2019-05-19T03:58:51.656Z,10.10
2019-05-19T04:02:54.657Z,10.87
2019-05-19T04:06:57.669Z,9.33
2019-05-19T04:11:00.693Z,10.77
2019-05-19T04:15:03.002Z,11.20
2019-05-19T04:19:06.006Z,11.30
2019-05-19T04:23:09.042Z,9.57
2019-05-19T04:27:12.165Z,9.57
2019-05-19T04:31:16.158Z,9.80
2019-05-19T04:35:19.257Z,9.60
2019-05-19T04:39:22.286Z,9.63
2019-05-19T04:43:25.278Z,9.53
2019-05-19T04:47:28.282Z,10.23
2019-05-19T04:51:29.344Z,10.80
2019-05-19T04:55:32.385Z,9.30
2019-05-19T04:59:35.399Z,9.60
2019-05-19T05:03:38.397Z,10.60
2019-05-19T05:07:41.404Z,10.57
2019-05-19T05:11:44.436Z,10.33
2019-05-19T05:15:47.455Z,10.23
2019-05-19T05:19:50.464Z,10.57
2019-05-19T05:23:53.476Z,11.93
2019-05-19T05:27:56.472Z,9.87
2019-05-19T05:32:00.305Z,12.83
2019-05-19T05:36:03.610Z,13.30
2019-05-19T05:40:07.382Z,16.50
2019-05-19T05:44:10.469Z,16.57
2019-05-19T05:48:13.481Z,15.47
2019-05-19T05:52:16.476Z,15.80
2019-05-19T05:56:19.493Z,16.20
2019-05-19T06:00:22.897Z,16.10
2019-05-19T06:04:25.907Z,15.50
2019-05-19T06:08:28.920Z,15.07
2019-05-19T06:12:31.928Z,15.73
2019-05-19T06:16:34.949Z,15.13
2019-05-19T06:20:37.951Z,17.30
2019-05-19T06:24:41.050Z,17.00
2019-05-19T06:28:44.559Z,17.40
2019-05-19T06:32:55.660Z,16.10
2019-05-19T06:36:58.649Z,17.93
2019-05-19T06:41:01.669Z,18.97
2019-05-19T06:45:06.477Z,19.10
2019-05-19T06:49:09.476Z,20.27
2019-05-19T06:53:14.462Z,19.73
2019-05-19T06:57:17.432Z,20.47
2019-05-19T07:01:20.436Z,19.57
2019-05-19T07:05:23.443Z,21.33
2019-05-19T07:09:26.574Z,20.70
2019-05-19T07:13:29.684Z,17.00
2019-05-19T07:17:32.715Z,18.60
2019-05-19T07:21:35.755Z,18.37
2019-05-19T07:25:38.796Z,17.17
2019-05-19T07:29:41.794Z,16.70
2019-05-19T07:33:45.775Z,15.23
2019-05-19T07:37:49.093Z,15.03
2019-05-19T07:41:52.103Z,14.93
2019-05-19T07:45:55.110Z,13.63
2019-05-19T07:49:58.117Z,14.17
2019-05-19T07:54:01.110Z,14.37
2019-05-19T07:58:04.112Z,12.80
2019-05-19T08:02:07.120Z,12.53
2019-05-19T08:06:10.154Z,42.97
2019-05-19T08:10:13.325Z,5.50
2019-05-19T08:14:16.329Z,8.50
2019-05-19T08:18:19.325Z,9.57
2019-05-19T08:22:22.424Z,9.40
2019-05-19T08:26:25.428Z,8.30
2019-05-19T08:30:28.421Z,6.57
2019-05-19T08:34:32.854Z,6.50
2019-05-19T08:38:35.941Z,6.57
2019-05-19T08:42:38.949Z,5.37
2019-05-19T08:46:41.968Z,6.03
2019-05-19T08:50:45.020Z,5.60
2019-05-19T08:54:48.021Z,5.30
2019-05-19T08:58:51.053Z,5.57
2019-05-19T09:02:54.069Z,5.43
2019-05-19T09:06:57.070Z,5.70
2019-05-19T09:11:00.124Z,6.07
2019-05-19T09:15:04.965Z,5.20
2019-05-19T09:19:07.969Z,5.33
2019-05-19T09:23:10.984Z,5.30
2019-05-19T09:27:13.982Z,5.40
2019-05-19T09:31:17.000Z,5.70
2019-05-19T09:35:20.780Z,5.50
2019-05-19T09:39:23.792Z,5.87
2019-05-19T09:43:26.794Z,5.10
2019-05-19T09:47:29.791Z,5.47
2019-05-19T09:51:32.809Z,4.63
2019-05-19T09:55:35.847Z,5.53
2019-05-19T09:59:38.840Z,5.23
2019-05-19T10:03:41.849Z,5.20
2019-05-19T10:07:44.861Z,4.97
2019-05-19T10:11:59.649Z,5.03
2019-05-19T10:16:02.659Z,5.43
2019-05-19T10:20:07.828Z,4.70
2019-05-19T10:24:10.861Z,5.13
2019-05-19T10:28:13.931Z,5.60
2019-05-19T10:32:17.088Z,5.00
2019-05-19T10:36:21.395Z,5.80
2019-05-19T10:40:24.426Z,5.50
2019-05-19T10:44:27.454Z,6.10
2019-05-19T10:48:30.466Z,6.57
2019-05-19T10:52:33.513Z,5.87
2019-05-19T10:56:36.599Z,5.60
2019-05-19T11:00:39.612Z,7.07
2019-05-19T11:04:42.628Z,6.70
2019-05-19T11:08:45.674Z,6.23
2019-05-19T11:12:49.314Z,6.50
2019-05-19T11:16:52.357Z,5.87
2019-05-19T11:20:55.420Z,6.37
2019-05-19T11:24:58.468Z,7.03
2019-05-19T11:29:01.492Z,6.33
2019-05-19T11:33:04.490Z,6.60
2019-05-19T11:37:09.497Z,6.00
2019-05-19T11:41:12.521Z,6.60
2019-05-19T11:45:15.632Z,6.50
2019-05-19T11:49:18.632Z,7.03
2019-05-19T11:53:21.642Z,6.73
2019-05-19T11:57:24.656Z,7.50
2019-05-19T12:01:27.661Z,6.67
2019-05-19T12:05:30.758Z,7.00
2019-05-19T12:09:33.867Z,6.13
2019-05-19T12:13:36.955Z,7.40
2019-05-19T12:17:40.061Z,5.80
2019-05-19T12:21:43.147Z,6.00
2019-05-19T12:25:46.155Z,6.50
2019-05-19T12:29:49.159Z,6.60
2019-05-19T12:33:52.518Z,5.50
2019-05-19T12:37:55.744Z,6.83
2019-05-19T12:41:58.773Z,6.63
2019-05-19T12:46:01.809Z,6.77
2019-05-19T12:50:06.054Z,5.77
2019-05-19T12:54:09.128Z,5.30
2019-05-19T12:58:12.145Z,5.20
2019-05-19T13:02:15.154Z,6.63
2019-05-19T13:06:18.161Z,7.17
2019-05-19T13:10:22.217Z,6.20
2019-05-19T13:14:25.217Z,6.80
2019-05-19T13:18:28.321Z,6.83
2019-05-19T13:22:31.333Z,6.27
2019-05-19T13:26:34.325Z,6.20
2019-05-19T13:30:37.340Z,6.80
2019-05-19T13:34:40.345Z,5.63
2019-05-19T13:38:44.084Z,5.30
2019-05-19T13:42:47.082Z,5.33
2019-05-19T13:46:50.097Z,6.47
2019-05-19T13:50:53.110Z,5.33
2019-05-19T13:54:56.109Z,5.27
2019-05-19T13:58:59.099Z,5.30
2019-05-19T14:03:02.096Z,5.47
2019-05-19T14:07:05.103Z,4.97
2019-05-19T14:11:08.097Z,5.90
2019-05-19T14:15:11.401Z,5.37
2019-05-19T14:19:14.426Z,6.17
2019-05-19T14:23:17.420Z,5.73
2019-05-19T14:27:29.464Z,5.73
2019-05-19T14:31:25.369Z,5.90
2019-05-19T14:35:28.395Z,4.83
2019-05-19T14:39:31.971Z,5.30
2019-05-19T14:43:35.237Z,5.60
2019-05-19T14:47:38.248Z,6.10
2019-05-19T14:51:41.260Z,5.63
2019-05-19T14:55:44.257Z,6.43
2019-05-19T14:59:47.256Z,5.57
2019-05-19T15:03:50.266Z,5.20
2019-05-19T15:07:53.289Z,6.20
2019-05-19T15:11:56.304Z,6.57
2019-05-19T15:15:59.326Z,5.47
2019-05-19T15:20:04.334Z,6.53
2019-05-19T15:24:07.419Z,5.93
2019-05-19T15:28:10.433Z,6.00
2019-05-19T15:32:13.428Z,9.37
2019-05-19T15:36:16.488Z,5.90
2019-05-19T15:40:20.715Z,11.63
2019-05-19T15:44:23.733Z,7.10
2019-05-19T15:48:26.740Z,6.77
2019-05-19T15:52:29.754Z,7.17
2019-05-19T15:56:32.801Z,6.53
2019-05-19T16:00:35.800Z,6.90
2019-05-19T16:04:38.796Z,6.57
2019-05-19T16:08:41.803Z,6.13
2019-05-19T16:12:44.806Z,5.70
2019-05-19T16:16:47.972Z,6.40
2019-05-19T16:20:50.976Z,6.23
2019-05-19T16:24:53.985Z,5.67
2019-05-19T16:28:57.013Z,5.40
2019-05-19T16:33:00.018Z,6.17
2019-05-19T16:37:03.029Z,6.43
2019-05-19T16:41:07.705Z,4.93
2019-05-19T16:45:10.874Z,4.97
2019-05-19T16:49:13.902Z,5.73
2019-05-19T16:53:17.477Z,5.87
2019-05-19T16:57:20.538Z,5.83
2019-05-19T17:01:23.573Z,5.60
2019-05-19T17:05:26.677Z,6.70
2019-05-19T17:09:29.852Z,6.37
2019-05-19T17:13:32.935Z,4.77
2019-05-19T17:17:36.025Z,5.07
2019-05-19T17:21:39.128Z,4.10
2019-05-19T17:25:42.228Z,3.97
2019-05-19T17:29:45.225Z,4.00
2019-05-19T17:33:48.222Z,4.73
2019-05-19T17:37:51.324Z,5.00
2019-05-19T17:41:55.368Z,3.00
2019-05-19T17:45:58.446Z,3.20
2019-05-19T17:50:01.687Z,3.60
2019-05-19T17:54:04.872Z,4.20
2019-05-19T17:58:07.961Z,4.50
2019-05-19T18:02:10.967Z,4.40
2019-05-19T18:06:13.965Z,4.77
2019-05-19T18:10:17.049Z,4.90
2019-05-19T18:14:20.044Z,4.17
2019-05-19T18:18:23.040Z,4.57
2019-05-19T18:22:26.164Z,4.57
2019-05-19T18:26:29.252Z,4.43
2019-05-19T18:30:32.252Z,4.60
2019-05-19T18:34:35.261Z,6.30
2019-05-19T18:38:38.260Z,5.13
2019-05-19T18:42:42.074Z,5.23
2019-05-19T18:46:45.151Z,4.73
2019-05-19T18:50:48.191Z,5.07
2019-05-19T18:54:51.297Z,4.83
2019-05-19T18:58:54.316Z,5.20
2019-05-19T19:02:57.439Z,4.50
2019-05-19T19:07:00.457Z,4.03
2019-05-19T19:11:03.641Z,4.07
2019-05-19T19:15:06.749Z,4.73
2019-05-19T19:19:09.793Z,5.10
2019-05-19T19:23:12.906Z,4.80
2019-05-19T19:27:15.922Z,4.87
2019-05-19T19:31:18.953Z,4.47
2019-05-19T19:35:21.981Z,10.53
2019-05-19T19:39:24.978Z,5.30
2019-05-19T19:43:29.399Z,6.03
2019-05-19T19:47:32.472Z,5.33
2019-05-19T19:51:35.576Z,5.20
2019-05-19T19:55:38.572Z,16.63
2019-05-19T19:59:41.566Z,7.23
2019-05-19T20:03:44.669Z,5.73
2019-05-19T20:07:47.773Z,5.60
2019-05-19T20:11:50.781Z,5.33
2019-05-19T20:15:53.863Z,6.00
2019-05-19T20:19:56.968Z,5.80
2019-05-19T20:23:59.988Z,5.40
2019-05-19T20:28:02.964Z,5.50
2019-05-19T20:32:05.963Z,5.80
2019-05-19T20:36:08.963Z,6.83
2019-05-19T20:40:12.477Z,6.80
2019-05-19T20:44:15.606Z,6.27
2019-05-19T20:48:18.618Z,6.20
2019-05-19T20:52:21.632Z,5.43
2019-05-19T20:56:24.638Z,5.60
2019-05-19T21:00:27.949Z,6.20
2019-05-19T21:04:30.941Z,6.30
2019-05-19T21:08:33.944Z,5.60
2019-05-19T21:12:36.960Z,6.10
2019-05-19T21:16:39.963Z,5.70
2019-05-19T21:20:42.970Z,6.20
2019-05-19T21:24:45.987Z,6.53
2019-05-19T21:28:48.985Z,6.60
2019-05-19T21:32:51.972Z,6.20
2019-05-19T21:36:55.064Z,7.10
2019-05-19T21:40:58.071Z,7.90
2019-05-19T21:45:03.091Z,7.63
2019-05-19T21:49:06.103Z,7.07
2019-05-19T21:53:09.102Z,7.10
2019-05-19T21:57:12.088Z,9.43
2019-05-19T22:01:23.201Z,8.00
2019-05-19T22:05:20.169Z,7.50
2019-05-19T22:09:23.188Z,6.97
2019-05-19T22:13:26.606Z,7.20
2019-05-19T22:17:29.587Z,6.50
2019-05-19T22:21:32.587Z,7.33
2019-05-19T22:25:35.607Z,7.13
2019-05-19T22:29:38.690Z,7.07
2019-05-19T22:33:41.688Z,6.80
2019-05-19T22:37:44.888Z,7.40
2019-05-19T22:41:47.888Z,8.00
2019-05-19T22:45:51.522Z,7.40
2019-05-19T22:49:54.554Z,7.53
2019-05-19T22:53:57.547Z,7.20
2019-05-19T22:58:00.547Z,8.30
2019-05-19T23:02:03.543Z,8.10
2019-05-19T23:06:06.648Z,8.07
2019-05-19T23:10:10.176Z,6.93
2019-05-19T23:14:13.188Z,8.30
2019-05-19T23:18:16.225Z,8.63
2019-05-19T23:22:19.239Z,9.10
2019-05-19T23:26:22.284Z,10.50
2019-05-19T23:30:25.285Z,10.80
2019-05-19T23:34:28.309Z,9.33
2019-05-19T23:38:31.317Z,9.63
2019-05-19T23:42:35.372Z,9.43
2019-05-19T23:46:39.415Z,9.37
2019-05-19T23:50:42.414Z,7.90
2019-05-19T23:54:45.439Z,7.23
2019-05-19T23:58:48.473Z,8.30
